Tuesday, January 23, 2018, 6:17 AM CST
Back to Local

KP28, Medicine Lodge

Location: Medicine Lodge, KS, United States Lat: 37.283
Local Time: 6:17 AM CST (12:17 GMT) Lon: -98.55
Time Zone: US/Central Elev: 1538 ft

Show me the last for .
Show Decoded

2018-01-23 04:56 METAR KP28 231056Z AUTO 32008KT M01/M08 A3014 RMK AO1 SLP213 T10111083 =
2018-01-23 03:56 METAR KP28 230956Z AUTO 33007KT M01/M08 A3012 RMK AO1 SLP208 T10111083 =
2018-01-23 02:56 METAR KP28 230856Z AUTO 33010KT M01/M08 A3011 RMK AO1 SLP204 T10061083 51015 =
2018-01-23 01:56 METAR KP28 230756Z AUTO 32010KT 01/M08 A3010 RMK AO1 SLP202 T00111083 =
2018-01-23 00:56 METAR KP28 230656Z AUTO 32012G19KT 02/M08 A3009 RMK AO1 SLP197 T00221078 =
2018-01-22 23:56 METAR KP28 230556Z AUTO 33011G22KT 02/M08 A3007 RMK AO1 SLP190 T00221078 10089
                 20022 401170022 51010 =
2018-01-22 22:56 METAR KP28 230456Z AUTO 31012G20KT 04/M07 A3006 RMK AO1 SLP188 T00441072 =
2018-01-22 21:56 METAR KP28 230356Z AUTO 31014G23KT 04/M07 A3005 RMK AO1 SLP184 T00391072 =
2018-01-22 20:56 METAR KP28 230256Z AUTO 30010KT 06/M07 A3004 RMK AO1 SLP177 T00611072 51025 =
2018-01-22 19:56 METAR KP28 230156Z AUTO 30014G22KT 07/M07 A3002 RMK AO1 SLP171 T00671067 =
2018-01-22 18:56 METAR KP28 230056Z AUTO 31013G21KT 07/M07 A2999 RMK AO1 SLP161 T00721067 =
2018-01-22 17:56 METAR KP28 222356Z AUTO 31018G28KT 09/M07 A2996 RMK AO1 PK WND 34036/2300 SLP149
                 T00891072 10117 20056 51044 =
2018-01-22 16:56 METAR KP28 222256Z AUTO 32019G41KT 11/M08 A2991 RMK AO1 PK WND 32044/2233 SLP133
                 T01061078 =
2018-01-22 15:56 METAR KP28 222156Z AUTO 31023G36KT 11/M06 A2987 RMK AO1 PK WND 34044/2107 SLP118
                 T01061061 =
2018-01-22 14:56 METAR KP28 222056Z AUTO 32027G50KT 11/M06 A2982 RMK AO1 PK WND 31054/2012 SLP101
                 T01061061 55001 =
2018-01-22 13:56 METAR KP28 221956Z AUTO 32032G47KT 09/M04 A2981 RMK AO1 PK WND 32049/1920 SLP098
                 T00891044 =
2018-01-22 12:56 METAR KP28 221856Z AUTO 32026G40KT 06/M03 A2982 RMK AO1 PK WND 32045/1834 SLP101
                 T00611028 =
2018-01-22 11:56 METAR KP28 221756Z AUTO 32021G36KT 07/M02 A2983 RMK AO1 PK WND 30041/1743 SLP102
                 T00671017 10067 20044 51043 =
2018-01-22 10:56 METAR KP28 221656Z AUTO 32023G36KT 06/M01 A2979 RMK AO1 PK WND 32041/1640 SLP091
                 T00561011 =
2018-01-22 09:56 METAR KP28 221556Z AUTO 32017G40KT 05/M02 A2975 RMK AO1 PK WND 33045/1521 PRESRR
                 SLP078 T00501022 =
2018-01-22 08:56 METAR KP28 221456Z AUTO 32020G39KT 05/M02 A2969 RMK AO1 PK WND 31043/1441 SLP060
                 T00501017 53028 =
2018-01-22 07:56 METAR KP28 221356Z AUTO 31020G35KT 05/M02 A2966 RMK AO1 PK WND 32040/1330 SLP046
                 T00501022 =
2018-01-22 06:56 METAR KP28 221256Z AUTO 30022G38KT 06/M03 A2962 RMK AO1 PK WND 30038/1248 SLP032
                 T00561028 =

Support USWX by starting your Amazon purchase here.